createdAt,value
2022-11-27T00:11:00.524Z,27.80
2022-11-27T00:31:00.309Z,29.80
2022-11-27T00:50:59.972Z,16.50
2022-11-27T01:10:59.679Z,32.50
2022-11-27T01:30:59.445Z,22.50
2022-11-27T01:50:59.129Z,28.10
2022-11-27T02:10:58.848Z,17.00
2022-11-27T02:30:58.633Z,23.90
2022-11-27T02:50:58.298Z,27.90
2022-11-27T03:10:58.010Z,25.80
2022-11-27T03:30:57.889Z,26.60
2022-11-27T03:50:57.509Z,20.80
2022-11-27T04:10:57.265Z,25.50
2022-11-27T04:30:56.994Z,52.90
2022-11-27T04:50:56.723Z,56.50
2022-11-27T05:10:56.439Z,60.90
2022-11-27T05:30:56.268Z,44.30
2022-11-27T05:50:55.982Z,24.80
2022-11-27T06:10:55.647Z,65.80
2022-11-27T06:30:55.409Z,51.50
2022-11-27T06:50:55.116Z,35.80
2022-11-27T07:10:54.840Z,47.10
2022-11-27T07:30:54.584Z,38.50
2022-11-27T07:50:54.312Z,33.30
2022-11-27T08:10:54.039Z,17.10
2022-11-27T08:30:53.774Z,23.90
2022-11-27T08:50:53.508Z,37.40
2022-11-27T09:10:53.261Z,60.70
2022-11-27T09:30:53.048Z,39.80
2022-11-27T09:50:52.726Z,26.40
2022-11-27T10:10:52.496Z,38.50
2022-11-27T10:30:52.202Z,40.80
2022-11-27T10:50:51.908Z,31.40
2022-11-27T11:10:51.636Z,21.90
2022-11-27T11:30:51.369Z,27.30
2022-11-27T11:50:51.132Z,24.40
2022-11-27T12:10:50.828Z,35.20
2022-11-27T12:30:50.603Z,23.70
2022-11-27T12:50:50.288Z,18.70
2022-11-27T13:10:50.082Z,21.00
2022-11-27T13:30:49.801Z,19.10
2022-11-27T13:50:49.497Z,25.00
2022-11-27T14:10:49.228Z,34.30
2022-11-27T14:30:48.956Z,14.30
2022-11-27T14:50:48.682Z,16.70
2022-11-27T15:10:48.409Z,22.20
2022-11-27T15:30:48.223Z,15.80
2022-11-27T15:50:51.648Z,12.90
2022-11-27T16:10:47.589Z,27.00
2022-11-27T16:30:47.311Z,15.80
2022-11-27T16:50:47.054Z,19.90
2022-11-27T17:10:46.790Z,19.40
2022-11-27T17:30:46.546Z,21.80
2022-11-27T17:50:46.247Z,22.00
2022-11-27T18:10:45.977Z,11.60
2022-11-27T18:30:45.707Z,18.30
2022-11-27T18:50:45.444Z,27.20
2022-11-27T19:10:45.165Z,23.60
2022-11-27T19:30:44.891Z,9.40
2022-11-27T19:50:44.626Z,15.10
2022-11-27T20:10:44.363Z,26.10
2022-11-27T20:30:44.095Z,17.00
2022-11-27T20:50:47.215Z,19.10
2022-11-27T21:10:43.585Z,10.00
2022-11-27T21:30:43.296Z,15.70
2022-11-27T21:50:43.025Z,27.30
2022-11-27T22:10:42.944Z,22.30
2022-11-27T22:30:42.527Z,19.00
2022-11-27T22:50:42.205Z,9.80
2022-11-27T23:10:41.960Z,15.20
2022-11-27T23:30:41.656Z,11.20
2022-11-27T23:50:41.394Z,9.40
